Time;durP1;ratioP1;P1;durP2;ratioP2;P2;SDS_P1;SDS_P2;PMS_P1;PMS_P2;Temp;Humidity;BMP_temperature;BMP_pressure;BME280_temperature;BME280_humidity;BME280_pressure;Samples;Min_cycle;Max_cycle;Signal;HPM_P1;HPM_P2
2023/08/19 00:01:33;;;;;;;10.00;8.00;;;;;;;28.72;49.55;99753.25;4316478;33;34968;-70
2023/08/19 00:04:01;;;;;;;9.85;8.68;;;;;;;28.71;49.60;99757.91;4304186;33;34651;-70
2023/08/19 00:06:39;;;;;;;8.85;7.47;;;;;;;28.71;49.60;99766.16;4316544;33;33451;-69
2023/08/19 00:09:08;;;;;;;9.93;7.75;;;;;;;28.69;49.59;99757.37;4317989;33;33987;-70
2023/08/19 00:11:37;;;;;;;8.45;7.57;;;;;;;28.68;49.60;99750.22;4316289;33;33503;-69
2023/08/19 00:14:05;;;;;;;8.65;7.68;;;;;;;28.68;49.59;99752.97;4316658;33;33627;-69
2023/08/19 00:16:33;;;;;;;9.05;7.37;;;;;;;28.67;49.60;99754.03;4304788;33;33295;-69
2023/08/19 00:19:01;;;;;;;10.15;7.97;;;;;;;28.65;49.58;99750.75;4317421;33;34733;-70
2023/08/19 00:21:29;;;;;;;8.60;7.55;;;;;;;28.65;49.50;99745.25;4315195;33;34860;-70
2023/08/19 00:23:57;;;;;;;10.70;7.35;;;;;;;28.64;49.53;99757.31;4303121;33;33824;-69
2023/08/19 00:26:25;;;;;;;10.43;7.80;;;;;;;28.62;49.55;99745.75;4303091;33;34221;-69
2023/08/19 00:28:53;;;;;;;11.00;7.87;;;;;;;28.63;49.58;99755.69;4301984;33;33877;-69
2023/08/19 00:31:20;;;;;;;10.35;7.50;;;;;;;28.62;49.61;99753.19;4303164;33;34782;-69
2023/08/19 00:33:48;;;;;;;8.60;7.05;;;;;;;28.61;49.61;99763.34;4303018;33;34671;-69
2023/08/19 00:36:16;;;;;;;10.90;8.10;;;;;;;28.60;49.65;99758.13;4314614;33;34121;-69
2023/08/19 00:38:45;;;;;;;8.32;7.15;;;;;;;28.58;49.74;99760.28;4317658;33;33663;-69
2023/08/19 00:41:13;;;;;;;9.45;7.65;;;;;;;28.56;49.78;99757.81;4317493;33;33752;-69
2023/08/19 00:43:40;;;;;;;8.27;7.40;;;;;;;28.58;49.77;99754.78;4317839;33;34284;-69
2023/08/19 00:46:08;;;;;;;8.80;7.87;;;;;;;28.56;49.78;99751.50;4318018;33;33680;-70
2023/08/19 00:48:36;;;;;;;8.43;7.53;;;;;;;28.56;49.82;99754.22;4317458;33;33574;-70
2023/08/19 00:51:05;;;;;;;15.40;7.85;;;;;;;28.53;49.82;99747.34;4316344;33;33920;-69
2023/08/19 00:53:34;;;;;;;9.98;7.78;;;;;;;28.53;49.81;99760.22;4316277;33;33830;-70
2023/08/19 00:56:02;;;;;;;10.55;7.90;;;;;;;28.51;49.83;99757.75;4316208;33;33179;-69
2023/08/19 00:58:30;;;;;;;8.93;7.18;;;;;;;28.50;49.89;99750.63;4292450;33;33651;-69
2023/08/19 01:00:58;;;;;;;9.73;8.10;;;;;;;28.50;49.93;99758.84;4291368;33;33974;-69
2023/08/19 01:03:25;;;;;;;8.80;6.78;;;;;;;28.50;49.94;99755.28;4317540;33;33476;-70
2023/08/19 01:06:10;;;;;;;9.27;7.72;;;;;;;28.48;49.89;99753.59;4317636;33;34061;-70
2023/08/19 01:08:51;;;;;;;9.43;7.95;;;;;;;28.49;49.96;99759.94;4316639;33;33616;-69
2023/08/19 01:11:38;;;;;;;14.57;7.47;;;;;;;28.48;49.91;99758.28;4304632;33;33945;-69
2023/08/19 01:14:46;;;;;;;11.57;7.43;;;;;;;28.45;49.96;99761.56;4317249;33;33938;-69
2023/08/19 01:17:14;;;;;;;12.60;7.57;;;;;;;28.46;49.91;99764.03;4294306;33;33158;-69
2023/08/19 01:19:42;;;;;;;8.93;7.55;;;;;;;28.42;49.91;99762.06;4317350;33;33921;-69
2023/08/19 01:22:10;;;;;;;11.75;8.15;;;;;;;28.41;49.88;99764.00;4304006;33;33899;-69
2023/08/19 01:24:38;;;;;;;11.18;7.75;;;;;;;28.41;49.93;99760.44;4304141;33;33362;-70
2023/08/19 01:27:06;;;;;;;13.62;8.00;;;;;;;28.40;49.93;99765.09;4317218;33;33356;-69
2023/08/19 01:29:34;;;;;;;11.38;7.72;;;;;;;28.39;49.87;99757.09;4292100;33;34733;-70
2023/08/19 01:32:01;;;;;;;13.35;7.78;;;;;;;28.39;49.96;99762.59;4304092;33;33905;-69
2023/08/19 01:34:29;;;;;;;9.60;7.72;;;;;;;28.39;49.98;99765.31;4292137;33;34706;-69
2023/08/19 01:37:00;;;;;;;12.27;7.25;;;;;;;28.39;49.99;99770.81;4291958;33;33632;-69
2023/08/19 01:39:28;;;;;;;11.20;7.87;;;;;;;28.37;49.98;99768.34;4304087;33;33439;-68
2023/08/19 01:41:56;;;;;;;10.98;8.10;;;;;;;28.38;49.90;99766.41;4292137;33;34716;-70
2023/08/19 01:44:23;;;;;;;8.65;7.55;;;;;;;28.37;49.84;99773.84;4291682;33;32812;-69
2023/08/19 01:46:51;;;;;;;8.98;8.07;;;;;;;28.35;49.90;99772.41;4304315;33;33417;-70
2023/08/19 01:49:19;;;;;;;8.88;7.20;;;;;;;28.32;49.95;99773.75;4316864;33;34532;-69
2023/08/19 01:51:50;;;;;;;10.35;8.00;;;;;;;28.32;49.97;99775.69;4317057;33;34015;-69
2023/08/19 01:54:17;;;;;;;10.85;8.35;;;;;;;28.32;50.00;99778.41;4317268;33;34476;-70
2023/08/19 01:56:45;;;;;;;10.82;8.35;;;;;;;28.30;50.02;99775.91;4316904;33;33020;-69
2023/08/19 01:59:13;;;;;;;11.50;7.80;;;;;;;28.31;50.05;99776.78;4303722;33;34349;-70
2023/08/19 02:01:40;;;;;;;10.93;8.18;;;;;;;28.31;50.04;99779.50;4303422;33;34453;-69
2023/08/19 02:04:08;;;;;;;9.35;7.57;;;;;;;28.30;50.01;99773.16;4316693;33;34663;-71
2023/08/19 02:06:36;;;;;;;9.68;7.72;;;;;;;28.29;50.01;99768.78;4316906;33;33160;-69
2023/08/19 02:09:03;;;;;;;8.85;7.50;;;;;;;28.29;49.99;99767.94;4303781;33;33076;-69
2023/08/19 02:11:31;;;;;;;9.57;8.15;;;;;;;28.29;49.96;99767.94;4303639;33;33961;-69
2023/08/19 02:13:59;;;;;;;9.95;7.97;;;;;;;28.29;49.95;99767.94;4316766;33;34682;-70
2023/08/19 02:16:27;;;;;;;9.98;7.57;;;;;;;28.29;49.92;99776.19;4303551;33;34158;-68
2023/08/19 02:18:59;;;;;;;10.82;7.70;;;;;;;28.29;49.92;99765.22;4302099;33;34081;-70
2023/08/19 02:21:27;;;;;;;9.15;8.13;;;;;;;28.28;50.03;99775.34;4302141;33;34763;-71
2023/08/19 02:23:55;;;;;;;10.18;8.05;;;;;;;28.28;49.96;99771.78;4289050;33;34142;-69
2023/08/19 02:26:23;;;;;;;9.27;7.43;;;;;;;28.28;49.96;99769.03;4302617;33;33137;-70
2023/08/19 02:28:50;;;;;;;10.13;7.93;;;;;;;28.28;49.94;99769.03;4303938;33;33878;-69
2023/08/19 02:31:18;;;;;;;9.57;7.78;;;;;;;28.27;49.98;99761.91;4290657;33;34046;-69
2023/08/19 02:33:46;;;;;;;10.07;8.00;;;;;;;28.26;50.00;99760.22;4305978;33;34597;-69
2023/08/19 02:36:14;;;;;;;9.68;7.97;;;;;;;28.26;50.07;99768.47;4305379;33;34290;-70
2023/08/19 02:38:42;;;;;;;9.25;8.25;;;;;;;28.25;49.99;99764.06;4318335;33;34518;-68
2023/08/19 02:41:09;;;;;;;11.10;7.95;;;;;;;28.23;49.95;99759.69;4304997;33;34695;-69
2023/08/19 02:43:37;;;;;;;10.20;8.60;;;;;;;28.23;49.97;99750.63;4318457;33;33834;-69
2023/08/19 02:46:05;;;;;;;9.75;8.05;;;;;;;28.23;49.94;99753.34;4318512;33;33449;-70
2023/08/19 02:48:32;;;;;;;8.82;7.68;;;;;;;28.24;49.88;99755.00;4304817;33;34629;-70
2023/08/19 02:51:01;;;;;;;8.95;7.90;;;;;;;28.23;49.84;99754.19;4318112;33;34247;-69
2023/08/19 02:53:28;;;;;;;10.23;7.85;;;;;;;28.21;49.87;99747.28;4318536;33;33873;-68
2023/08/19 02:55:57;;;;;;;8.63;7.55;;;;;;;28.21;49.86;99747.28;4317910;33;34285;-70
2023/08/19 02:58:25;;;;;;;8.68;7.28;;;;;;;28.21;49.82;99737.16;4318677;33;33880;-70
2023/08/19 03:00:53;;;;;;;8.00;7.18;;;;;;;28.21;49.77;99742.66;4318385;33;34031;-70
2023/08/19 03:03:21;;;;;;;11.05;7.62;;;;;;;28.19;49.77;99728.34;4304839;33;33950;-69
2023/08/19 03:05:49;;;;;;;9.77;7.93;;;;;;;28.19;49.74;99733.03;4305100;33;34138;-69
2023/08/19 03:08:16;;;;;;;10.15;7.62;;;;;;;28.19;49.68;99733.03;4317995;33;33662;-69
2023/08/19 03:10:44;;;;;;;8.63;7.47;;;;;;;28.17;49.67;99727.81;4318345;33;33782;-69
2023/08/19 03:13:12;;;;;;;9.63;7.55;;;;;;;28.17;49.65;99729.72;4318210;33;33754;-68
2023/08/19 03:15:40;;;;;;;12.75;7.50;;;;;;;28.17;49.68;99733.28;4318227;33;34319;-70
2023/08/19 03:18:07;;;;;;;9.63;7.93;;;;;;;28.16;49.64;99730.78;4318140;33;33528;-69
2023/08/19 03:20:36;;;;;;;8.30;7.45;;;;;;;28.15;49.73;99729.13;4318405;33;33929;-70
2023/08/19 03:23:03;;;;;;;8.57;7.22;;;;;;;28.14;49.72;99741.19;4304963;33;34004;-69
2023/08/19 03:25:31;;;;;;;9.65;7.47;;;;;;;28.14;49.63;99742.03;4318146;33;33884;-70
2023/08/19 03:27:59;;;;;;;7.93;7.12;;;;;;;28.13;49.62;99736.81;4318303;33;33989;-69
2023/08/19 03:30:27;;;;;;;10.43;8.25;;;;;;;28.13;49.63;99740.38;4293012;33;33221;-70
2023/08/19 03:32:55;;;;;;;9.23;7.60;;;;;;;28.12;49.63;99744.22;4305121;33;34360;-69
2023/08/19 03:35:25;;;;;;;10.88;7.50;;;;;;;28.13;49.59;99745.03;4318099;33;33189;-69
2023/08/19 03:37:53;;;;;;;12.40;7.78;;;;;;;28.12;49.60;99754.34;4316922;33;33603;-69
2023/08/19 03:40:21;;;;;;;10.95;7.87;;;;;;;28.11;49.65;99744.44;4318003;33;34392;-69
2023/08/19 03:42:50;;;;;;;8.38;7.47;;;;;;;28.10;49.71;99749.13;4317950;33;33993;-68
2023/08/19 03:45:18;;;;;;;9.07;7.55;;;;;;;28.12;49.62;99751.59;4317851;33;34060;-70
2023/08/19 03:47:45;;;;;;;9.45;7.60;;;;;;;28.10;49.62;99754.59;4317913;33;33926;-69
2023/08/19 03:50:13;;;;;;;9.82;7.32;;;;;;;28.09;49.58;99752.94;4304549;33;33073;-69
2023/08/19 03:52:41;;;;;;;8.18;7.03;;;;;;;28.09;49.55;99752.13;4292742;33;35109;-69
2023/08/19 03:55:09;;;;;;;10.05;8.27;;;;;;;28.09;49.54;99763.91;4304746;33;33597;-69
2023/08/19 03:57:37;;;;;;;11.60;7.90;;;;;;;28.08;49.54;99765.00;4317832;33;33801;-69
2023/08/19 04:00:06;;;;;;;9.23;7.60;;;;;;;28.08;49.54;99759.53;4317941;33;34722;-69
2023/08/19 04:02:40;;;;;;;8.18;7.00;;;;;;;28.08;49.56;99764.19;4317755;33;34211;-68
2023/08/19 04:05:10;;;;;;;9.40;7.95;;;;;;;28.07;49.55;99771.59;4293126;33;34003;-69
2023/08/19 04:07:37;;;;;;;9.55;8.55;;;;;;;28.06;49.58;99767.16;4304687;33;34639;-69
2023/08/19 04:10:05;;;;;;;8.63;7.55;;;;;;;28.07;49.58;99777.09;4317794;33;34747;-70
2023/08/19 04:12:33;;;;;;;11.45;7.85;;;;;;;28.05;49.66;99779.22;4317668;33;34464;-68
2023/08/19 04:15:02;;;;;;;9.10;7.62;;;;;;;28.05;49.63;99784.72;4304968;33;34238;-69
2023/08/19 04:17:34;;;;;;;8.65;7.20;;;;;;;28.06;49.60;99783.62;4317624;33;34615;-69
2023/08/19 04:20:08;;;;;;;9.77;7.90;;;;;;;28.04;49.68;99785.81;4293014;33;34660;-69
2023/08/19 04:22:36;;;;;;;8.68;7.78;;;;;;;28.04;49.63;99780.31;4297128;33;33476;-70
2023/08/19 04:25:05;;;;;;;12.27;7.70;;;;;;;28.04;49.64;99787.72;4290386;33;32600;-68
2023/08/19 04:27:32;;;;;;;10.15;7.45;;;;;;;28.03;49.60;99789.66;4302937;33;34004;-69
2023/08/19 04:30:01;;;;;;;10.43;7.78;;;;;;;28.02;49.63;99793.44;4303441;33;34490;-70
2023/08/19 04:32:29;;;;;;;9.95;7.90;;;;;;;28.02;49.71;99789.88;4290798;33;34634;-69
2023/08/19 04:34:56;;;;;;;10.48;7.93;;;;;;;28.02;49.73;99787.16;4317720;33;32842;-70
2023/08/19 04:37:24;;;;;;;10.90;7.62;;;;;;;28.02;49.79;99789.88;4304806;33;33708;-70
2023/08/19 04:39:53;;;;;;;10.27;7.65;;;;;;;27.99;49.88;99780.28;4317913;33;33521;-70
2023/08/19 04:42:21;;;;;;;9.23;7.78;;;;;;;28.00;49.88;99781.09;4313078;33;33651;-69
2023/08/19 04:44:49;;;;;;;10.27;7.50;;;;;;;27.98;50.00;99781.38;4306705;33;33457;-69
2023/08/19 04:47:17;;;;;;;9.90;7.25;;;;;;;27.99;50.06;99779.44;4303250;33;33913;-68
2023/08/19 04:49:46;;;;;;;9.85;7.78;;;;;;;27.97;50.15;99786.00;4305166;33;34009;-70
2023/08/19 04:52:15;;;;;;;10.15;7.47;;;;;;;27.99;50.02;99784.94;4317806;33;34793;-70
2023/08/19 04:54:43;;;;;;;10.57;7.47;;;;;;;28.01;50.05;99799.22;4317324;33;33488;-70
2023/08/19 04:57:11;;;;;;;10.88;7.45;;;;;;;27.99;50.13;99784.94;4292486;33;34637;-70
2023/08/19 04:59:39;;;;;;;9.07;7.87;;;;;;;27.99;50.27;99801.41;4317783;33;33834;-69
2023/08/19 05:02:07;;;;;;;11.95;8.13;;;;;;;27.99;50.19;99796.72;4317362;33;33996;-70
2023/08/19 05:04:35;;;;;;;11.95;8.15;;;;;;;27.99;50.14;99801.41;4304079;33;32324;-69
2023/08/19 05:07:03;;;;;;;9.88;8.15;;;;;;;27.99;50.23;99804.13;4304500;33;34624;-70
2023/08/19 05:09:31;;;;;;;9.45;8.18;;;;;;;27.99;50.21;99813.19;4304570;33;34657;-70
2023/08/19 05:11:59;;;;;;;9.18;7.05;;;;;;;28.00;50.25;99814.84;4317445;33;34024;-69
2023/08/19 05:14:28;;;;;;;8.90;7.53;;;;;;;28.02;50.20;99820.06;4317659;33;34093;-69
2023/08/19 05:16:56;;;;;;;12.32;8.23;;;;;;;28.03;50.29;99824.47;4317265;33;34632;-68
2023/08/19 05:19:24;;;;;;;9.30;7.28;;;;;;;28.02;50.30;99831.84;4304197;33;34898;-70
2023/08/19 05:21:52;;;;;;;8.48;7.60;;;;;;;28.02;50.34;99831.84;4317421;33;34555;-69
2023/08/19 05:24:20;;;;;;;13.02;8.77;;;;;;;28.03;50.34;99839.03;4317067;33;33101;-69
2023/08/19 05:26:48;;;;;;;12.95;7.78;;;;;;;28.04;50.48;99846.16;4317581;33;33854;-69
2023/08/19 05:29:16;;;;;;;9.43;7.47;;;;;;;28.02;50.48;99851.06;4304060;33;34812;-70
2023/08/19 05:31:44;;;;;;;9.23;8.23;;;;;;;28.00;50.48;99850.50;4317165;33;33553;-69
2023/08/19 05:34:11;;;;;;;10.30;7.97;;;;;;;28.02;50.41;99855.72;4304005;33;33134;-70
2023/08/19 05:36:39;;;;;;;9.40;7.72;;;;;;;28.03;50.46;99850.00;4317340;33;34711;-69
2023/08/19 05:39:07;;;;;;;10.35;8.10;;;;;;;28.02;50.42;99861.19;4317060;33;33923;-69
2023/08/19 05:41:35;;;;;;;12.43;7.93;;;;;;;28.02;50.41;99859.28;4317129;33;34856;-69
2023/08/19 05:44:03;;;;;;;10.98;7.90;;;;;;;28.03;50.38;99860.12;4303879;33;34380;-69
2023/08/19 05:46:31;;;;;;;10.02;7.32;;;;;;;28.03;50.42;99874.69;4317343;33;34352;-69
2023/08/19 05:48:58;;;;;;;11.40;7.97;;;;;;;28.04;50.46;99878.25;4317143;33;34035;-69
2023/08/19 05:51:27;;;;;;;11.60;7.85;;;;;;;28.05;50.49;99877.97;4317053;33;34580;-69
2023/08/19 05:53:58;;;;;;;10.57;7.85;;;;;;;28.04;50.54;99884.56;4316995;33;33235;-70
2023/08/19 05:56:26;;;;;;;9.85;7.95;;;;;;;28.06;50.60;99890.59;4316947;33;34734;-69
2023/08/19 05:58:55;;;;;;;10.38;8.07;;;;;;;28.07;50.67;99900.50;4303598;33;33631;-70
2023/08/19 06:01:22;;;;;;;12.20;8.95;;;;;;;28.05;50.99;99910.91;4302864;33;34766;-69
2023/08/19 06:03:51;;;;;;;11.52;8.35;;;;;;;28.07;51.15;99922.47;4316837;33;34415;-69
2023/08/19 06:06:19;;;;;;;12.02;8.40;;;;;;;28.06;51.25;99929.00;4316795;33;33696;-68
2023/08/19 06:08:46;;;;;;;9.82;8.80;;;;;;;28.06;51.36;99952.88;4303827;33;34819;-70
2023/08/19 06:11:14;;;;;;;13.65;9.23;;;;;;;28.05;51.41;99938.31;4316947;33;33546;-70
2023/08/19 06:13:42;;;;;;;13.38;10.10;;;;;;;28.04;51.47;99961.34;4316740;33;34160;-71
2023/08/19 06:16:09;;;;;;;12.37;11.07;;;;;;;28.04;51.52;99946.81;4316669;33;34651;-68
2023/08/19 06:18:38;;;;;;;15.18;12.13;;;;;;;28.04;51.54;99961.34;4316692;33;33840;-70
2023/08/19 06:21:06;;;;;;;14.02;12.50;;;;;;;28.04;51.59;99966.84;4316608;33;34565;-69
2023/08/19 06:23:33;;;;;;;13.90;12.50;;;;;;;28.03;51.65;99975.34;4316738;33;33100;-71
2023/08/19 06:26:01;;;;;;;13.65;12.10;;;;;;;28.01;51.65;99972.81;4316597;33;33677;-69
2023/08/19 06:28:29;;;;;;;13.05;11.70;;;;;;;28.00;51.71;99990.38;4316443;33;34759;-70
2023/08/19 06:30:57;;;;;;;14.75;12.37;;;;;;;28.00;51.72;100001.34;4316512;33;34849;-69
2023/08/19 06:33:26;;;;;;;13.68;12.25;;;;;;;27.99;51.71;100012.56;4316417;33;34478;-70
2023/08/19 06:35:56;;;;;;;13.38;11.82;;;;;;;27.98;51.64;100017.22;4315805;33;34561;-68
2023/08/19 06:38:27;;;;;;;13.70;11.82;;;;;;;27.99;51.52;100027.13;4303105;33;34564;-69
2023/08/19 06:41:02;;;;;;;12.98;11.50;;;;;;;27.97;51.59;100043.81;4302836;33;34533;-70
2023/08/19 06:43:31;;;;;;;14.57;12.43;;;;;;;27.97;51.46;100037.50;4303538;33;33119;-68
2023/08/19 06:45:59;;;;;;;14.87;11.70;;;;;;;27.96;51.39;100055.88;4290942;33;33873;-69
2023/08/19 06:48:26;;;;;;;13.62;11.98;;;;;;;27.96;51.35;100055.88;4302668;33;34050;-69
2023/08/19 06:50:54;;;;;;;13.80;12.35;;;;;;;27.96;51.25;100057.78;4284538;33;33783;-69
2023/08/19 06:53:22;;;;;;;11.55;10.43;;;;;;;27.96;51.31;100066.00;4301022;33;33390;-69
2023/08/19 06:56:12;;;;;;;11.77;10.48;;;;;;;27.96;51.17;100072.31;4315492;33;34435;-71
2023/08/19 06:58:41;;;;;;;13.45;10.73;;;;;;;27.99;51.14;100061.94;4302824;33;34809;-70
2023/08/19 07:01:15;;;;;;;12.73;9.48;;;;;;;27.95;51.31;100073.41;4302548;33;33897;-71
2023/08/19 07:03:43;;;;;;;12.50;8.68;;;;;;;27.97;51.22;100070.41;4291099;33;33054;-70
2023/08/19 07:06:11;;;;;;;11.35;8.95;;;;;;;27.96;51.06;100074.22;4290046;33;34102;-71
2023/08/19 07:08:39;;;;;;;12.73;8.60;;;;;;;27.95;51.01;100081.63;4302364;33;33484;-69
2023/08/19 07:11:08;;;;;;;11.38;9.13;;;;;;;27.96;50.91;100077.81;4302693;33;34664;-72
2023/08/19 07:13:36;;;;;;;10.35;7.78;;;;;;;27.97;50.81;100086.84;4303270;33;33360;-71
2023/08/19 07:16:04;;;;;;;9.38;6.70;;;;;;;27.99;50.79;100089.38;4317905;33;34655;-71
2023/08/19 07:18:38;;;;;;;11.25;7.45;;;;;;;27.98;50.68;100099.53;4304755;33;34752;-70
2023/08/19 07:21:11;;;;;;;9.63;6.50;;;;;;;28.00;50.63;100108.31;4292432;33;34407;-69
2023/08/19 07:23:46;;;;;;;8.70;6.20;;;;;;;28.00;50.61;100112.97;4302440;33;34399;-71
2023/08/19 07:26:15;;;;;;;11.45;6.50;;;;;;;28.00;50.65;100118.47;4301246;33;34346;-69
2023/08/19 07:28:45;;;;;;;9.10;6.85;;;;;;;28.00;50.67;100124.78;4290524;33;33586;-70
2023/08/19 07:31:15;;;;;;;9.35;7.00;;;;;;;28.00;50.65;100116.53;4302161;33;33730;-72
2023/08/19 07:33:55;;;;;;;10.05;6.85;;;;;;;28.02;50.71;100122.59;4291210;33;34160;-70
2023/08/19 07:36:27;;;;;;;9.98;7.05;;;;;;;28.03;50.71;100118.78;4279871;33;33967;-70
2023/08/19 07:38:55;;;;;;;8.32;6.55;;;;;;;28.05;50.69;100113.88;4301873;33;34396;-67
2023/08/19 07:41:23;;;;;;;10.07;6.90;;;;;;;28.05;50.68;100105.66;4304303;33;33503;-67
2023/08/19 07:43:51;;;;;;;10.40;6.55;;;;;;;28.08;50.65;100099.66;4280741;33;32939;-67
2023/08/19 07:46:19;;;;;;;9.77;5.70;;;;;;;28.12;50.56;100097.25;4276833;33;33341;-68
2023/08/19 07:48:47;;;;;;;8.88;6.28;;;;;;;28.16;50.43;100088.25;4289534;33;33731;-70
2023/08/19 07:51:16;;;;;;;8.95;6.20;;;;;;;28.19;50.31;100095.16;4290139;33;32777;-67
2023/08/19 07:53:44;;;;;;;8.38;5.87;;;;;;;28.19;50.24;100086.94;4266343;33;33493;-67
2023/08/19 07:56:16;;;;;;;7.93;6.35;;;;;;;28.20;50.28;100086.66;4280348;33;32875;-69
2023/08/19 07:58:54;;;;;;;9.27;6.55;;;;;;;28.21;50.27;100077.37;4291195;33;33864;-72
2023/08/19 08:01:36;;;;;;;7.70;5.93;;;;;;;28.20;50.31;100099.56;4306898;33;33242;-70
2023/08/19 08:04:05;;;;;;;8.25;5.60;;;;;;;28.20;50.32;100089.41;4291917;33;33499;-68
2023/08/19 08:06:33;;;;;;;10.60;6.22;;;;;;;28.18;50.36;100079.78;4292151;33;33708;-67
2023/08/19 08:09:01;;;;;;;10.32;6.50;;;;;;;28.17;50.41;100073.47;4291341;33;33894;-69
2023/08/19 08:11:30;;;;;;;15.55;6.35;;;;;;;28.17;50.41;100073.47;4280305;33;32885;-69
2023/08/19 08:13:57;;;;;;;9.10;6.45;;;;;;;28.20;50.31;100072.13;4303667;33;32430;-68
2023/08/19 08:16:25;;;;;;;8.10;5.85;;;;;;;28.19;50.33;100057.59;4293776;33;33691;-67
2023/08/19 08:18:53;;;;;;;8.23;5.87;;;;;;;28.20;50.33;100061.97;4292142;33;35421;-72
2023/08/19 08:21:21;;;;;;;7.40;5.50;;;;;;;28.19;50.33;100054.84;4317427;33;33488;-71
2023/08/19 08:23:49;;;;;;;9.25;6.37;;;;;;;28.20;50.36;100050.19;4303490;33;34104;-67
2023/08/19 08:26:17;;;;;;;9.30;5.82;;;;;;;28.20;50.43;100045.50;4296740;33;34736;-71
2023/08/19 08:28:45;;;;;;;9.20;5.95;;;;;;;28.21;50.59;100043.59;4266032;33;32937;-69
2023/08/19 08:31:13;;;;;;;8.48;6.10;;;;;;;28.22;50.61;100039.78;4271429;33;32799;-69
2023/08/19 08:33:45;;;;;;;9.35;5.95;;;;;;;28.21;50.66;100030.75;4280860;33;32006;-68
2023/08/19 08:36:13;;;;;;;8.10;5.72;;;;;;;28.23;50.68;100022.25;4317208;33;33893;-71
2023/08/19 08:38:40;;;;;;;7.95;5.97;;;;;;;28.23;50.70;100016.75;4317087;33;34855;-70
2023/08/19 08:41:08;;;;;;;9.23;6.07;;;;;;;28.22;50.69;100010.44;4295610;33;33513;-67
2023/08/19 08:43:36;;;;;;;8.82;6.10;;;;;;;28.23;50.70;100005.78;4277010;33;32926;-68
2023/08/19 08:46:04;;;;;;;10.75;6.25;;;;;;;28.23;50.68;100001.12;4289598;33;34666;-68
2023/08/19 08:48:32;;;;;;;10.63;6.18;;;;;;;28.24;50.69;99993.72;4265451;33;33839;-68
2023/08/19 08:51:00;;;;;;;10.23;6.20;;;;;;;28.24;50.71;99985.47;4277746;33;33923;-68
2023/08/19 08:53:28;;;;;;;7.97;5.93;;;;;;;28.25;50.69;99991.81;4284502;33;32905;-67
2023/08/19 08:55:56;;;;;;;10.02;6.55;;;;;;;28.23;50.70;99981.91;4302686;33;34190;-67
2023/08/19 08:58:27;;;;;;;8.85;6.05;;;;;;;28.25;50.58;99965.19;4289661;33;34045;-67
2023/08/19 09:00:55;;;;;;;11.23;6.47;;;;;;;28.25;50.47;99956.13;4288868;33;33121;-67
2023/08/19 09:03:25;;;;;;;9.25;6.10;;;;;;;28.26;50.43;99952.28;4265753;33;32540;-67
2023/08/19 09:06:25;;;;;;;8.55;5.80;;;;;;;28.25;50.51;99961.63;4288615;33;32781;-65
2023/08/19 09:09:10;;;;;;;9.35;6.55;;;;;;;28.26;50.55;99957.78;4282288;33;34520;-67
2023/08/19 09:11:48;;;;;;;9.38;6.03;;;;;;;28.28;50.60;99958.38;4267473;33;32596;-70
2023/08/19 09:14:44;;;;;;;8.00;5.95;;;;;;;28.26;50.80;99960.53;4289456;33;32429;-69
2023/08/19 09:17:34;;;;;;;9.95;6.28;;;;;;;28.30;50.66;99950.69;4291855;33;34040;-69
2023/08/19 09:20:04;;;;;;;10.23;5.75;;;;;;;28.27;50.63;99948.50;4289296;33;33893;-69
2023/08/19 09:22:55;;;;;;;11.30;6.22;;;;;;;28.24;50.77;99947.06;4289286;33;33839;-70
2023/08/19 09:25:44;;;;;;;8.73;5.57;;;;;;;28.25;50.80;99950.63;4302716;33;34190;-70
2023/08/19 09:28:16;;;;;;;9.35;5.53;;;;;;;28.26;50.67;99949.53;4264978;33;33689;-69
2023/08/19 09:30:55;;;;;;;9.75;5.60;;;;;;;28.24;50.70;99947.06;4290134;33;33970;-69
2023/08/19 09:33:28;;;;;;;8.10;5.68;;;;;;;28.22;50.89;99950.09;4302678;33;33315;-71
2023/08/19 09:36:02;;;;;;;10.93;6.32;;;;;;;28.22;50.89;99950.09;4285339;33;32279;-68
2023/08/19 09:38:37;;;;;;;8.13;5.30;;;;;;;28.22;50.89;99952.81;4281288;33;32103;-68
2023/08/19 09:41:06;;;;;;;8.10;6.10;;;;;;;28.22;50.77;99950.09;4316748;33;33575;-69
2023/08/19 09:43:41;;;;;;;8.32;5.37;;;;;;;28.22;50.89;99949.25;4303690;33;34651;-69
2023/08/19 09:46:09;;;;;;;9.05;5.60;;;;;;;28.21;50.91;99961.28;4292355;33;34140;-70
2023/08/19 09:48:38;;;;;;;8.88;5.93;;;;;;;28.20;50.93;99965.94;4316598;33;35103;-69
2023/08/19 09:51:34;;;;;;;7.15;5.82;;;;;;;28.19;50.94;99958.81;4316856;33;34527;-69
2023/08/19 09:54:37;;;;;;;7.95;5.87;;;;;;;28.20;50.97;99970.59;4278227;33;35027;-69
2023/08/19 09:57:05;;;;;;;10.57;5.70;;;;;;;28.20;51.15;99973.34;4288775;33;85207;-70
2023/08/19 09:59:32;;;;;;;7.72;5.87;;;;;;;28.18;51.18;99970.87;4301695;33;33618;-69
2023/08/19 10:02:00;;;;;;;9.00;5.40;;;;;;;28.18;51.30;99970.06;4302261;33;34478;-68
2023/08/19 10:04:28;;;;;;;7.95;5.60;;;;;;;28.18;51.20;99981.03;4287633;33;33893;-69
2023/08/19 10:06:55;;;;;;;7.75;5.65;;;;;;;28.18;51.22;99964.56;4315686;33;32783;-69
2023/08/19 10:09:26;;;;;;;7.57;5.57;;;;;;;28.17;51.33;99963.72;4302559;33;34005;-69
2023/08/19 10:11:55;;;;;;;8.27;6.20;;;;;;;28.18;51.39;99975.53;4302983;33;34752;-69
2023/08/19 10:14:29;;;;;;;9.70;6.00;;;;;;;28.17;51.39;99974.72;4303512;33;33587;-70
2023/08/19 10:17:06;;;;;;;9.82;6.05;;;;;;;28.19;51.41;99975.28;4291909;33;34276;-70
2023/08/19 10:19:41;;;;;;;8.05;5.93;;;;;;;28.18;51.45;99973.62;4303717;33;34636;-70
2023/08/19 10:22:12;;;;;;;9.93;5.70;;;;;;;28.17;51.42;99971.97;4292156;33;33918;-69
2023/08/19 10:24:40;;;;;;;10.20;6.45;;;;;;;28.18;51.42;99967.31;4291263;33;35003;-69
2023/08/19 10:27:18;;;;;;;9.15;5.80;;;;;;;28.19;51.40;99964.28;4301188;33;33333;-69
2023/08/19 10:29:48;;;;;;;10.18;5.80;;;;;;;28.19;51.39;99978.00;4315079;33;33481;-69
2023/08/19 10:32:34;;;;;;;7.57;5.70;;;;;;;28.19;51.37;99975.28;4279806;33;34018;-70
2023/08/19 10:35:12;;;;;;;7.03;5.70;;;;;;;28.22;51.31;99977.53;4302968;33;34326;-69
2023/08/19 10:37:48;;;;;;;7.37;5.55;;;;;;;28.19;51.47;99969.78;4303266;33;33961;-70
2023/08/19 10:40:25;;;;;;;7.57;6.07;;;;;;;28.19;51.37;99972.53;4291434;33;33602;-70
2023/08/19 10:42:59;;;;;;;8.90;6.78;;;;;;;28.22;51.63;99965.72;4316068;33;34052;-70
2023/08/19 10:45:34;;;;;;;8.00;6.10;;;;;;;28.19;51.89;99966.22;4290802;33;34809;-69
2023/08/19 10:48:02;;;;;;;8.55;6.20;;;;;;;28.18;51.79;99965.38;4303953;33;32861;-69
2023/08/19 10:50:35;;;;;;;11.73;6.93;;;;;;;28.18;51.68;99965.38;4317840;33;33839;-70
2023/08/19 10:53:04;;;;;;;9.07;6.35;;;;;;;28.19;51.71;99968.97;4290268;33;33985;-70
2023/08/19 10:55:51;;;;;;;7.68;6.30;;;;;;;28.18;51.75;99968.13;4290401;33;34693;-70
2023/08/19 10:58:19;;;;;;;11.02;6.55;;;;;;;28.22;52.00;99960.22;4310320;33;33301;-70
2023/08/19 11:00:47;;;;;;;7.68;6.35;;;;;;;28.19;52.10;99956.06;4292803;33;33392;-69
2023/08/19 11:03:15;;;;;;;9.40;6.45;;;;;;;28.16;52.17;99959.31;4292544;33;34019;-67
2023/08/19 11:05:50;;;;;;;9.40;5.80;;;;;;;28.18;51.97;99964.56;4292900;33;33753;-67
2023/08/19 11:08:18;;;;;;;9.43;6.05;;;;;;;28.19;51.87;99950.59;4293003;33;33289;-67
2023/08/19 11:10:46;;;;;;;9.27;6.00;;;;;;;28.18;51.96;99954.41;4292603;33;35200;-67
2023/08/19 11:13:14;;;;;;;8.85;6.53;;;;;;;28.18;52.07;99965.38;4277522;33;32577;-66
2023/08/19 11:15:42;;;;;;;8.85;6.47;;;;;;;28.20;52.21;99959.62;4284218;33;34509;-67
2023/08/19 11:18:10;;;;;;;7.62;6.40;;;;;;;28.21;52.52;99951.16;4298391;33;33933;-67
2023/08/19 11:20:39;;;;;;;8.25;6.07;;;;;;;28.22;52.77;99954.75;4289764;33;33813;-67
2023/08/19 11:23:07;;;;;;;8.85;6.53;;;;;;;28.22;52.76;99955.56;4302907;33;33552;-70
2023/08/19 11:25:36;;;;;;;8.45;6.07;;;;;;;28.23;52.63;99943.50;4290297;33;33546;-67
2023/08/19 11:28:04;;;;;;;8.25;6.05;;;;;;;28.25;52.93;99945.16;4266105;33;33405;-67
2023/08/19 11:30:33;;;;;;;10.15;6.62;;;;;;;28.25;53.01;99945.97;4278157;33;33940;-66
2023/08/19 11:33:02;;;;;;;8.18;6.55;;;;;;;28.27;52.92;99952.06;4290375;33;34702;-67
2023/08/19 11:35:41;;;;;;;10.02;6.57;;;;;;;28.30;52.83;99945.22;4289771;33;33246;-67
2023/08/19 11:38:13;;;;;;;7.62;5.97;;;;;;;28.34;52.79;99940.87;4290034;33;33228;-69
2023/08/19 11:40:41;;;;;;;8.82;6.15;;;;;;;28.32;52.86;99937.56;4289857;33;34648;-67